createdAt,value
2022-12-01T00:00:07.970Z,83.8
2022-12-01T00:01:08.001Z,83.9
2022-12-01T00:02:08.411Z,84.0
2022-12-01T00:03:08.438Z,84.1
2022-12-01T00:04:08.013Z,84.1
2022-12-01T00:05:08.029Z,84.1
2022-12-01T00:06:08.044Z,84.1
2022-12-01T00:07:08.040Z,84.0
2022-12-01T00:08:08.221Z,84.1
2022-12-01T00:09:08.075Z,84.1
2022-12-01T00:10:08.081Z,84.1
2022-12-01T00:11:08.090Z,84.1
2022-12-01T00:12:08.091Z,84.1
2022-12-01T00:13:08.105Z,84.1
2022-12-01T00:14:08.111Z,84.1
2022-12-01T00:15:08.119Z,84.2
2022-12-01T00:16:08.274Z,84.1
2022-12-01T00:17:08.130Z,84.1
2022-12-01T00:18:08.144Z,84.2
2022-12-01T00:19:08.168Z,84.2
2022-12-01T00:20:08.164Z,84.3
2022-12-01T00:21:08.167Z,84.2
2022-12-01T00:22:08.189Z,84.0
2022-12-01T00:23:08.175Z,84.1
2022-12-01T00:24:08.183Z,84.1
2022-12-01T00:25:08.192Z,84.1
2022-12-01T00:26:08.192Z,84.1
2022-12-01T00:27:08.210Z,84.1
2022-12-01T00:28:08.217Z,84.0
2022-12-01T00:29:08.253Z,84.0
2022-12-01T00:30:08.231Z,84.1
2022-12-01T00:31:08.270Z,84.0
2022-12-01T00:32:08.627Z,84.0
2022-12-01T00:33:08.269Z,83.9
2022-12-01T00:34:11.728Z,83.8
2022-12-01T00:35:08.302Z,83.8
2022-12-01T00:36:08.311Z,83.9
2022-12-01T00:37:08.318Z,83.9
2022-12-01T00:38:08.333Z,83.9
2022-12-01T00:39:08.442Z,83.8
2022-12-01T00:40:08.348Z,83.9
2022-12-01T00:41:08.373Z,83.8
2022-12-01T00:42:13.779Z,83.8
2022-12-01T00:43:08.388Z,83.7
2022-12-01T00:44:08.406Z,83.7
2022-12-01T00:45:08.405Z,83.7
2022-12-01T00:46:08.808Z,83.7
2022-12-01T00:47:08.428Z,83.7
2022-12-01T00:48:08.429Z,83.7
2022-12-01T00:49:08.435Z,83.8
2022-12-01T00:50:08.444Z,83.7
2022-12-01T00:51:08.454Z,83.7
2022-12-01T00:52:08.458Z,83.8
2022-12-01T00:53:08.478Z,83.7
2022-12-01T00:54:08.483Z,83.8
2022-12-01T00:55:08.498Z,83.7
2022-12-01T00:56:08.507Z,83.8
2022-12-01T00:57:08.526Z,83.7
2022-12-01T00:58:08.526Z,83.7
2022-12-01T00:59:08.525Z,83.7
2022-12-01T01:00:08.548Z,83.7
2022-12-01T01:01:08.680Z,83.7
2022-12-01T01:02:08.762Z,83.7
2022-12-01T01:03:08.572Z,83.6
2022-12-01T01:04:08.608Z,83.6
2022-12-01T01:05:08.662Z,83.6
2022-12-01T01:06:08.612Z,83.6
2022-12-01T01:07:08.631Z,83.6
2022-12-01T01:08:08.950Z,83.6
2022-12-01T01:09:08.643Z,83.5
2022-12-01T01:10:08.661Z,83.4
2022-12-01T01:11:08.672Z,83.4
2022-12-01T01:12:08.689Z,83.5
2022-12-01T01:13:08.691Z,83.6
2022-12-01T01:14:08.693Z,83.7
2022-12-01T01:15:08.709Z,83.7
2022-12-01T01:16:08.982Z,83.7
2022-12-01T01:17:08.899Z,83.6
2022-12-01T01:18:08.747Z,83.6
2022-12-01T01:19:08.756Z,83.5
2022-12-01T01:20:08.785Z,83.5
2022-12-01T01:21:08.777Z,83.6
2022-12-01T01:22:08.804Z,83.5
2022-12-01T01:23:08.800Z,83.5
2022-12-01T01:24:08.812Z,83.4
2022-12-01T01:25:08.813Z,83.5
2022-12-01T01:26:08.826Z,83.6
2022-12-01T01:27:08.828Z,83.5
2022-12-01T01:45:09.357Z,83.3
2022-12-01T01:46:09.186Z,83.3
2022-12-01T01:47:09.034Z,83.3
2022-12-01T01:48:09.043Z,83.3
2022-12-01T01:49:09.056Z,83.3
2022-12-01T01:50:09.084Z,83.3
2022-12-01T01:51:09.078Z,83.3
2022-12-01T01:52:09.100Z,83.2
2022-12-01T01:53:09.106Z,83.1
2022-12-01T01:54:09.118Z,83.0
2022-12-01T01:55:09.120Z,83.0
2022-12-01T01:56:09.137Z,83.1
2022-12-01T01:57:09.150Z,83.1
2022-12-01T01:58:09.165Z,83.1
2022-12-01T01:59:09.175Z,83.1
2022-12-01T02:00:09.193Z,83.1
2022-12-01T02:01:09.455Z,83.0
2022-12-01T02:02:09.497Z,83.0
2022-12-01T02:03:09.232Z,82.9
2022-12-01T02:04:09.234Z,82.9
2022-12-01T02:05:09.244Z,82.9
2022-12-01T02:06:09.266Z,83.0
2022-12-01T02:07:09.262Z,83.0
2022-12-01T02:08:09.497Z,83.0
2022-12-01T02:09:09.304Z,83.0
2022-12-01T02:10:09.313Z,83.1
2022-12-01T02:11:09.328Z,83.1
2022-12-01T02:12:09.328Z,83.1
2022-12-01T02:13:09.345Z,83.1
2022-12-01T02:14:09.354Z,83.1
2022-12-01T02:15:09.370Z,83.0
2022-12-01T02:16:09.375Z,83.0
2022-12-01T02:17:09.641Z,83.0
2022-12-01T02:18:09.409Z,82.9
2022-12-01T02:19:09.412Z,82.9
2022-12-01T02:20:09.434Z,82.9
2022-12-01T02:21:09.437Z,82.9
2022-12-01T02:22:09.437Z,82.9
2022-12-01T02:23:09.453Z,82.8
2022-12-01T02:24:09.458Z,82.5
2022-12-01T02:25:09.470Z,82.6
2022-12-01T02:26:09.482Z,82.5
2022-12-01T02:27:09.503Z,82.4
2022-12-01T02:28:09.500Z,82.5
2022-12-01T02:29:09.505Z,82.6
2022-12-01T02:30:09.531Z,82.7
2022-12-01T02:31:15.051Z,82.7
2022-12-01T02:32:09.550Z,82.7
2022-12-01T02:33:09.569Z,82.7
2022-12-01T02:34:09.583Z,82.8
2022-12-01T02:35:09.601Z,82.6
2022-12-01T02:36:09.611Z,82.7
2022-12-01T02:37:09.625Z,82.6
2022-12-01T02:38:09.631Z,82.5
2022-12-01T02:39:09.641Z,82.5
2022-12-01T02:40:09.652Z,82.3
2022-12-01T02:41:09.663Z,82.3
2022-12-01T02:42:09.688Z,82.4
2022-12-01T02:43:09.690Z,82.4
2022-12-01T02:44:09.692Z,82.4
2022-12-01T02:45:09.701Z,82.3
2022-12-01T02:46:09.930Z,82.3
2022-12-01T02:47:09.721Z,82.4
2022-12-01T02:48:09.728Z,82.5
2022-12-01T02:49:09.735Z,82.5
2022-12-01T02:50:09.746Z,82.5
2022-12-01T02:51:09.762Z,82.4
2022-12-01T02:52:09.766Z,82.4
2022-12-01T02:53:09.781Z,82.5
2022-12-01T02:54:09.799Z,82.6
2022-12-01T02:55:09.798Z,82.6
2022-12-01T02:56:09.807Z,82.6
2022-12-01T02:57:09.822Z,82.6
2022-12-01T02:58:09.831Z,82.6
2022-12-01T02:59:09.847Z,82.7
2022-12-01T03:00:09.851Z,82.7
2022-12-01T03:01:09.992Z,82.6
2022-12-01T03:02:09.975Z,82.6
2022-12-01T03:03:09.886Z,82.7
2022-12-01T03:04:09.899Z,82.5
2022-12-01T03:05:09.908Z,82.5
2022-12-01T03:06:09.913Z,82.5
2022-12-01T03:07:09.910Z,82.5
2022-12-01T03:08:10.118Z,82.7
2022-12-01T03:09:09.941Z,82.8
2022-12-01T03:10:09.939Z,82.9
2022-12-01T03:11:09.947Z,83.0
2022-12-01T03:12:09.961Z,83.0
2022-12-01T03:13:09.969Z,82.9
2022-12-01T03:14:09.996Z,83.0
2022-12-01T03:15:09.992Z,83.0
2022-12-01T03:16:10.324Z,83.0
2022-12-01T03:17:10.008Z,83.0
2022-12-01T03:18:10.031Z,83.0
2022-12-01T03:19:10.019Z,82.9
2022-12-01T03:20:10.029Z,82.9
2022-12-01T03:21:10.034Z,82.9
2022-12-01T03:22:10.072Z,82.9
2022-12-01T03:23:10.054Z,83.0
2022-12-01T03:24:10.077Z,83.1
2022-12-01T03:25:10.078Z,83.1
2022-12-01T03:26:10.090Z,83.1
2022-12-01T03:27:10.107Z,83.1
2022-12-01T03:28:22.724Z,83.0
2022-12-01T03:29:10.136Z,82.8
2022-12-01T03:30:10.145Z,82.7
2022-12-01T03:31:10.508Z,82.7
2022-12-01T03:32:10.171Z,82.7
2022-12-01T03:33:10.171Z,82.6
2022-12-01T03:34:10.192Z,82.7
2022-12-01T03:35:10.192Z,82.7
2022-12-01T03:36:10.212Z,82.5
2022-12-01T03:37:10.205Z,82.6
2022-12-01T03:38:10.220Z,82.6
2022-12-01T03:39:10.244Z,82.6
2022-12-01T03:40:10.239Z,82.7
2022-12-01T03:41:10.249Z,82.7
2022-12-01T03:42:10.266Z,82.7
2022-12-01T03:43:10.278Z,82.7
2022-12-01T03:44:10.292Z,82.7
2022-12-01T03:45:10.307Z,82.7
2022-12-01T03:46:10.646Z,82.8
2022-12-01T03:47:10.333Z,82.8
2022-12-01T03:48:10.342Z,82.8
2022-12-01T03:49:10.353Z,82.8
2022-12-01T03:50:10.363Z,82.8
2022-12-01T03:51:10.377Z,82.9
2022-12-01T03:52:10.388Z,82.8
2022-12-01T03:53:10.419Z,82.8
2022-12-01T03:54:10.419Z,82.4
2022-12-01T03:55:10.427Z,82.4
2022-12-01T03:56:10.434Z,82.5
2022-12-01T03:57:10.455Z,82.6
2022-12-01T03:58:10.475Z,82.6
2022-12-01T03:59:10.478Z,82.6
2022-12-01T04:00:10.492Z,82.6
2022-12-01T04:01:10.515Z,82.5
2022-12-01T04:02:10.739Z,82.5
2022-12-01T04:03:10.677Z,82.5
2022-12-01T04:04:10.533Z,82.5
2022-12-01T04:05:10.537Z,82.5
2022-12-01T04:06:10.551Z,82.6
2022-12-01T04:07:10.557Z,82.5
2022-12-01T04:08:10.829Z,82.5
2022-12-01T04:09:10.573Z,82.5
2022-12-01T04:10:10.577Z,82.5
2022-12-01T04:11:10.582Z,82.6
2022-12-01T04:12:10.600Z,82.6
2022-12-01T04:13:10.611Z,82.6
2022-12-01T04:14:10.609Z,82.6
2022-12-01T04:15:10.613Z,82.6
2022-12-01T04:16:10.858Z,82.5
2022-12-01T04:17:10.642Z,82.5
2022-12-01T04:18:10.652Z,82.6
2022-12-01T04:19:10.672Z,82.8
2022-12-01T04:20:10.684Z,82.8
2022-12-01T04:21:10.687Z,82.8
2022-12-01T04:22:10.694Z,82.9
2022-12-01T04:23:10.713Z,82.7
2022-12-01T04:24:10.721Z,82.9
2022-12-01T04:25:10.724Z,82.9
2022-12-01T04:26:16.182Z,82.9
2022-12-01T04:27:10.744Z,82.9
2022-12-01T04:28:10.754Z,83.0
2022-12-01T04:29:10.772Z,82.9
2022-12-01T04:30:10.796Z,82.9
2022-12-01T04:31:10.955Z,82.8
2022-12-01T04:32:10.826Z,82.8
2022-12-01T04:33:10.832Z,82.8
2022-12-01T04:34:10.850Z,82.7
2022-12-01T04:35:10.877Z,82.7
2022-12-01T04:36:10.884Z,82.7
2022-12-01T04:37:10.890Z,82.6
2022-12-01T04:38:10.904Z,82.6
2022-12-01T04:39:10.941Z,82.5
2022-12-01T04:40:10.943Z,82.5
2022-12-01T04:41:10.942Z,82.4
2022-12-01T04:42:10.962Z,82.5
2022-12-01T04:43:10.982Z,82.5
2022-12-01T04:44:10.994Z,82.5
2022-12-01T04:45:11.001Z,82.3
2022-12-01T04:46:11.178Z,82.4
2022-12-01T04:47:11.021Z,82.5
2022-12-01T04:48:11.027Z,82.5
2022-12-01T04:49:11.031Z,82.4
2022-12-01T04:50:11.045Z,82.3
2022-12-01T04:51:11.046Z,82.4
2022-12-01T04:52:11.066Z,82.3
2022-12-01T04:53:11.064Z,82.3
2022-12-01T04:54:11.072Z,82.3
2022-12-01T04:55:11.080Z,82.1
2022-12-01T04:56:11.083Z,82.2
2022-12-01T04:57:11.119Z,82.2
2022-12-01T04:58:11.112Z,82.3
2022-12-01T04:59:11.118Z,82.5
2022-12-01T05:00:11.129Z,82.5
2022-12-01T05:01:11.490Z,82.6
2022-12-01T05:02:11.382Z,82.7
2022-12-01T05:03:15.514Z,82.7
2022-12-01T05:04:11.178Z,82.7
2022-12-01T05:05:11.195Z,82.7
2022-12-01T05:06:11.202Z,82.7
2022-12-01T05:07:11.222Z,82.6
2022-12-01T05:08:11.222Z,82.6
2022-12-01T05:09:18.072Z,82.7
2022-12-01T05:10:11.241Z,82.9
2022-12-01T05:11:11.252Z,83.0
2022-12-01T05:12:11.255Z,83.2
2022-12-01T05:13:11.271Z,83.3
2022-12-01T05:14:11.300Z,83.3
2022-12-01T05:15:11.321Z,83.4
2022-12-01T05:16:11.596Z,83.3
2022-12-01T05:17:11.330Z,83.3
2022-12-01T05:18:11.529Z,83.3
2022-12-01T05:19:11.344Z,83.3
2022-12-01T05:20:11.352Z,83.2
2022-12-01T05:21:11.359Z,83.1
2022-12-01T05:22:11.368Z,83.1
2022-12-01T05:23:17.390Z,83.0
2022-12-01T05:24:11.384Z,82.9
2022-12-01T05:25:11.404Z,83.0
2022-12-01T05:26:11.425Z,83.0
2022-12-01T05:27:11.421Z,83.0
2022-12-01T05:28:11.433Z,83.0
2022-12-01T05:29:11.441Z,83.0
2022-12-01T05:30:11.456Z,83.0
2022-12-01T05:31:11.817Z,82.9
2022-12-01T05:32:11.487Z,82.9
2022-12-01T05:33:11.482Z,82.7
2022-12-01T05:34:11.496Z,82.6
2022-12-01T05:35:11.498Z,82.6
2022-12-01T05:36:11.508Z,82.7
2022-12-01T05:37:11.530Z,82.8
2022-12-01T05:38:11.534Z,82.8
2022-12-01T05:39:11.552Z,82.8
2022-12-01T05:40:11.564Z,82.8
2022-12-01T05:41:11.575Z,82.8
2022-12-01T05:42:11.594Z,82.8
2022-12-01T05:43:11.618Z,82.7
2022-12-01T05:44:11.626Z,82.8
2022-12-01T05:45:11.655Z,82.9
2022-12-01T05:46:11.920Z,82.9
2022-12-01T05:47:11.670Z,83.0
2022-12-01T05:48:11.694Z,83.0
2022-12-01T05:49:11.699Z,83.0
2022-12-01T05:50:11.706Z,83.0
2022-12-01T05:51:11.748Z,83.0
2022-12-01T05:52:11.748Z,83.0
2022-12-01T05:53:11.754Z,83.0
2022-12-01T05:54:11.778Z,82.9
2022-12-01T05:55:11.786Z,82.8
2022-12-01T05:56:11.801Z,82.7
2022-12-01T05:57:11.821Z,82.7
2022-12-01T05:58:11.843Z,82.6
2022-12-01T05:59:11.840Z,82.5
2022-12-01T06:00:11.859Z,82.6
2022-12-01T06:01:11.890Z,82.7
2022-12-01T06:02:12.035Z,82.8
2022-12-01T06:03:11.898Z,82.7
2022-12-01T06:04:12.062Z,82.7
2022-12-01T06:05:11.929Z,82.7
2022-12-01T06:06:11.953Z,82.7
2022-12-01T06:07:11.968Z,82.7
2022-12-01T06:08:11.986Z,82.7
2022-12-01T06:09:11.999Z,82.7
2022-12-01T06:10:12.023Z,82.8
2022-12-01T06:11:12.038Z,82.5
2022-12-01T06:12:12.051Z,82.6
2022-12-01T06:13:12.059Z,82.6
2022-12-01T06:14:12.084Z,82.7
2022-12-01T06:15:12.114Z,82.7
2022-12-01T06:16:12.305Z,82.7
2022-12-01T06:17:12.120Z,82.8
2022-12-01T06:18:12.134Z,82.9
2022-12-01T06:19:12.157Z,83.0
2022-12-01T06:20:12.175Z,83.1
2022-12-01T06:21:12.190Z,83.1
2022-12-01T06:22:12.206Z,83.1
2022-12-01T06:23:12.387Z,83.1
2022-12-01T06:24:12.229Z,82.8
2022-12-01T06:25:12.248Z,82.7
2022-12-01T06:26:12.264Z,82.8
2022-12-01T06:27:12.269Z,82.8
2022-12-01T06:28:12.277Z,82.7
2022-12-01T06:29:12.282Z,82.6
2022-12-01T06:30:12.288Z,82.5
2022-12-01T06:31:12.299Z,82.6
2022-12-01T06:32:12.410Z,82.6
2022-12-01T06:33:12.336Z,82.7
2022-12-01T06:34:12.353Z,82.8
2022-12-01T06:35:12.376Z,82.9
2022-12-01T06:36:12.361Z,82.8
2022-12-01T06:37:12.377Z,82.8
2022-12-01T06:38:12.383Z,82.7
2022-12-01T06:39:12.402Z,82.6
2022-12-01T06:40:12.408Z,82.5
2022-12-01T06:41:12.436Z,82.4
2022-12-01T06:42:12.441Z,82.3
2022-12-01T06:43:12.441Z,82.3
2022-12-01T06:44:12.455Z,82.2
2022-12-01T06:45:12.464Z,82.2
2022-12-01T06:46:12.670Z,82.1
2022-12-01T06:47:12.486Z,81.9
2022-12-01T06:48:12.485Z,81.7
2022-12-01T06:49:12.508Z,81.6
2022-12-01T06:50:12.532Z,81.7
2022-12-01T06:51:12.524Z,81.9
2022-12-01T06:52:12.532Z,81.9
2022-12-01T06:53:12.550Z,82.0
2022-12-01T06:54:12.562Z,81.9
2022-12-01T06:55:12.810Z,81.8
2022-12-01T06:56:13.361Z,82.1
2022-12-01T06:57:13.124Z,82.1
2022-12-01T06:58:13.179Z,82.3
2022-12-01T06:59:13.129Z,82.1
2022-12-01T07:00:13.431Z,82.1
2022-12-01T07:01:12.915Z,82.2
2022-12-01T07:02:12.808Z,82.4
2022-12-01T07:03:12.658Z,82.4
2022-12-01T07:04:12.669Z,82.1
2022-12-01T07:05:12.694Z,82.3
2022-12-01T07:06:12.700Z,82.5
2022-12-01T07:07:12.717Z,82.6
2022-12-01T07:08:12.905Z,82.7
2022-12-01T07:09:12.761Z,82.5
2022-12-01T07:10:12.748Z,82.5
2022-12-01T07:11:12.771Z,82.5
2022-12-01T07:12:12.776Z,82.7
2022-12-01T07:13:12.791Z,82.4
2022-12-01T07:14:12.807Z,82.4
2022-12-01T07:15:12.819Z,82.4
2022-12-01T07:16:13.105Z,83.0
2022-12-01T07:17:12.853Z,82.6
2022-12-01T07:18:12.843Z,82.3
2022-12-01T07:19:12.864Z,82.5
2022-12-01T07:20:12.877Z,82.4
2022-12-01T07:21:12.904Z,82.7
2022-12-01T07:22:12.915Z,82.4
2022-12-01T07:23:12.918Z,82.3
2022-12-01T07:24:12.931Z,82.3
2022-12-01T07:25:12.937Z,82.3
2022-12-01T07:26:12.944Z,81.9
2022-12-01T07:27:12.970Z,82.1
2022-12-01T07:28:12.985Z,82.5
2022-12-01T07:29:12.997Z,82.9
2022-12-01T07:30:13.009Z,82.9
2022-12-01T07:31:13.229Z,83.0
2022-12-01T07:32:13.042Z,83.0
2022-12-01T07:33:13.053Z,83.3
2022-12-01T07:34:13.064Z,83.3
2022-12-01T07:35:13.065Z,83.0
2022-12-01T07:36:13.078Z,83.0
2022-12-01T07:37:13.099Z,83.0
2022-12-01T07:38:22.468Z,82.9
2022-12-01T07:39:13.128Z,82.6
2022-12-01T07:40:13.140Z,82.6
2022-12-01T07:41:13.143Z,82.2
2022-12-01T07:42:13.153Z,82.3
2022-12-01T07:43:13.163Z,82.4
2022-12-01T07:44:13.184Z,82.5
2022-12-01T07:45:13.201Z,82.6
2022-12-01T07:46:24.411Z,82.6
2022-12-01T07:47:13.210Z,82.6
2022-12-01T07:48:13.222Z,82.9
2022-12-01T07:49:13.243Z,82.7
2022-12-01T07:50:13.253Z,82.7
2022-12-01T07:51:13.263Z,82.9
2022-12-01T07:52:13.290Z,82.6
2022-12-01T07:53:13.288Z,82.5
2022-12-01T07:54:13.298Z,82.4
2022-12-01T07:55:13.317Z,82.2
2022-12-01T07:56:13.322Z,81.8
2022-12-01T07:57:13.326Z,81.9
2022-12-01T07:58:13.352Z,81.9
2022-12-01T07:59:13.355Z,81.4
2022-12-01T08:00:13.359Z,81.8
2022-12-01T08:01:13.774Z,81.5
2022-12-01T08:02:13.942Z,81.4
2022-12-01T08:03:13.760Z,81.4
2022-12-01T08:04:13.408Z,81.2
2022-12-01T08:05:13.428Z,81.2
2022-12-01T08:06:13.452Z,81.5
2022-12-01T08:07:13.460Z,81.7
2022-12-01T08:08:13.802Z,81.5
2022-12-01T08:09:13.495Z,81.4
2022-12-01T08:10:13.502Z,81.4
2022-12-01T08:11:13.541Z,81.7
2022-12-01T08:12:13.533Z,81.6
2022-12-01T08:13:17.780Z,81.3
2022-12-01T08:14:13.564Z,81.2
2022-12-01T08:15:13.586Z,81.1
2022-12-01T08:16:13.981Z,81.0
2022-12-01T08:17:13.586Z,80.4
2022-12-01T08:18:13.603Z,80.5
2022-12-01T08:19:13.618Z,80.3
2022-12-01T08:20:13.620Z,80.4
2022-12-01T08:21:13.639Z,79.8
2022-12-01T08:22:13.658Z,80.0
2022-12-01T08:23:13.672Z,80.0
2022-12-01T08:24:13.681Z,80.1
2022-12-01T08:25:13.701Z,80.2
2022-12-01T08:26:13.709Z,80.7
2022-12-01T08:27:13.717Z,80.7
2022-12-01T08:28:13.731Z,80.4
2022-12-01T08:29:20.701Z,80.5
2022-12-01T08:30:13.859Z,80.2
2022-12-01T08:31:14.017Z,80.6
2022-12-01T08:32:13.824Z,80.7
2022-12-01T08:33:13.803Z,80.4
2022-12-01T08:34:13.808Z,80.7
2022-12-01T08:35:14.137Z,80.7
2022-12-01T08:36:13.826Z,80.6
2022-12-01T08:37:13.831Z,80.3
2022-12-01T08:38:13.840Z,80.2
2022-12-01T08:39:13.845Z,80.3
2022-12-01T08:40:13.871Z,80.6
2022-12-01T08:41:13.879Z,80.6
2022-12-01T08:42:13.870Z,80.9
2022-12-01T08:43:56.411Z,81.1
2022-12-01T08:44:14.071Z,81.2
2022-12-01T08:45:14.274Z,81.1
2022-12-01T08:46:14.108Z,81.0
2022-12-01T08:47:19.221Z,81.0
2022-12-01T08:48:13.950Z,80.8
2022-12-01T08:49:13.958Z,80.7
2022-12-01T08:50:14.300Z,80.7
2022-12-01T08:51:14.002Z,80.6
2022-12-01T08:52:14.005Z,80.8
2022-12-01T08:53:14.019Z,80.3
2022-12-01T08:54:14.022Z,80.4
2022-12-01T08:55:14.268Z,79.7
2022-12-01T08:56:14.037Z,79.2
2022-12-01T08:57:14.051Z,79.1
2022-12-01T08:58:14.079Z,78.9
2022-12-01T08:59:14.112Z,79.1
2022-12-01T09:00:14.268Z,79.1
2022-12-01T09:01:14.107Z,79.0
2022-12-01T09:02:14.407Z,79.0
2022-12-01T09:03:14.236Z,78.4
2022-12-01T09:04:14.150Z,78.3
2022-12-01T09:05:14.315Z,78.3
2022-12-01T09:06:14.189Z,78.3
2022-12-01T09:07:14.193Z,78.0
2022-12-01T09:08:14.493Z,77.8
2022-12-01T09:09:14.224Z,77.7
2022-12-01T09:10:14.256Z,77.6
2022-12-01T09:11:14.245Z,77.7
2022-12-01T09:12:14.256Z,77.7
2022-12-01T09:13:14.255Z,77.9
2022-12-01T09:14:14.276Z,78.2
2022-12-01T09:15:14.363Z,78.4
2022-12-01T09:16:14.479Z,78.5
2022-12-01T09:17:14.326Z,78.6
2022-12-01T09:18:14.319Z,77.8
2022-12-01T09:19:25.345Z,77.8
2022-12-01T09:20:14.408Z,77.5
2022-12-01T09:21:14.359Z,77.4
2022-12-01T09:22:14.379Z,77.5
2022-12-01T09:23:14.398Z,77.8
2022-12-01T09:24:14.402Z,77.9
2022-12-01T09:25:14.440Z,77.1
2022-12-01T09:26:14.419Z,77.1
2022-12-01T09:27:14.437Z,77.0
2022-12-01T09:28:14.442Z,77.0
2022-12-01T09:29:14.446Z,77.2
2022-12-01T09:30:14.467Z,77.4
2022-12-01T09:31:14.620Z,77.5
2022-12-01T09:32:14.498Z,77.0
2022-12-01T09:33:14.508Z,76.6
2022-12-01T09:34:14.518Z,76.6
2022-12-01T09:35:14.529Z,76.5
2022-12-01T09:36:14.538Z,76.5
2022-12-01T09:37:14.546Z,76.7
2022-12-01T09:38:14.570Z,76.6
2022-12-01T09:39:14.582Z,76.4
2022-12-01T09:40:14.613Z,76.0
2022-12-01T09:41:15.471Z,76.2
2022-12-01T09:42:14.624Z,76.1
2022-12-01T09:43:14.645Z,76.2
2022-12-01T09:44:14.663Z,76.3
2022-12-01T09:45:14.686Z,76.1
2022-12-01T09:46:14.955Z,76.0
2022-12-01T09:47:14.714Z,75.7
2022-12-01T09:48:14.735Z,75.6
2022-12-01T09:49:14.730Z,75.4
2022-12-01T09:50:14.771Z,75.3
2022-12-01T09:51:14.756Z,75.3
2022-12-01T09:52:14.768Z,74.1
2022-12-01T09:53:14.766Z,74.4
2022-12-01T09:54:14.883Z,74.5
2022-12-01T09:55:14.785Z,74.6
2022-12-01T09:56:14.800Z,74.8
2022-12-01T09:57:14.808Z,75.0
2022-12-01T09:58:14.812Z,74.9
2022-12-01T09:59:14.831Z,74.8
2022-12-01T10:00:14.842Z,74.4
2022-12-01T10:01:14.953Z,74.6
2022-12-01T10:02:15.050Z,74.7
2022-12-01T10:03:14.853Z,75.2
2022-12-01T10:04:14.874Z,75.3
2022-12-01T10:05:14.976Z,75.4
2022-12-01T10:06:29.237Z,75.7
2022-12-01T10:07:14.918Z,76.1
2022-12-01T10:08:14.888Z,76.3
2022-12-01T10:09:14.912Z,76.4
2022-12-01T10:10:14.904Z,76.1
2022-12-01T10:11:14.910Z,76.2
2022-12-01T10:12:14.959Z,76.0
2022-12-01T10:13:14.952Z,75.9
2022-12-01T10:14:20.951Z,75.7
2022-12-01T10:15:14.940Z,76.0
2022-12-01T10:16:15.105Z,76.0
2022-12-01T10:17:14.961Z,76.0
2022-12-01T10:18:14.966Z,76.0
2022-12-01T10:19:14.981Z,75.8
2022-12-01T10:20:14.985Z,75.4
2022-12-01T10:21:14.986Z,75.2
2022-12-01T10:22:14.994Z,74.5
2022-12-01T10:23:14.997Z,73.8
2022-12-01T10:24:15.009Z,74.1
2022-12-01T10:25:15.010Z,74.0
2022-12-01T10:26:15.021Z,74.4
2022-12-01T10:27:15.034Z,74.6
2022-12-01T10:28:15.034Z,73.7
2022-12-01T10:29:15.053Z,73.9
2022-12-01T10:30:15.048Z,73.9
2022-12-01T10:31:15.256Z,73.5
2022-12-01T10:32:15.059Z,73.6
2022-12-01T10:33:15.072Z,73.6
2022-12-01T10:34:15.082Z,73.8
2022-12-01T10:35:15.078Z,73.7
2022-12-01T10:36:15.084Z,73.6
2022-12-01T10:37:15.217Z,73.3
2022-12-01T10:38:15.098Z,73.1
2022-12-01T10:39:15.105Z,73.1
2022-12-01T10:40:15.111Z,73.4
2022-12-01T10:41:15.150Z,73.6
2022-12-01T10:42:15.125Z,73.6
2022-12-01T10:43:15.171Z,74.1
2022-12-01T10:44:15.137Z,74.3
2022-12-01T10:45:15.146Z,74.5
2022-12-01T10:46:15.301Z,74.7
2022-12-01T10:47:15.147Z,74.3
2022-12-01T10:48:15.166Z,74.3
2022-12-01T10:49:15.162Z,74.3
2022-12-01T10:50:15.165Z,74.4
2022-12-01T10:51:15.245Z,74.3
2022-12-01T10:52:15.196Z,74.1
2022-12-01T10:53:15.184Z,74.0
2022-12-01T10:54:15.196Z,74.1
2022-12-01T10:55:15.202Z,74.3
2022-12-01T10:56:15.216Z,74.6
2022-12-01T10:57:15.223Z,74.7
2022-12-01T10:58:15.238Z,75.0
2022-12-01T10:59:15.231Z,75.4
2022-12-01T11:01:15.467Z,75.7
2022-12-01T11:02:16.302Z,75.9
2022-12-01T11:03:22.543Z,75.8
2022-12-01T11:04:15.283Z,75.2
2022-12-01T11:05:15.283Z,75.2
2022-12-01T11:06:15.287Z,75.2
2022-12-01T11:07:15.309Z,75.2
2022-12-01T11:08:15.305Z,75.2
2022-12-01T11:09:15.311Z,75.2
2022-12-01T11:10:15.595Z,75.4
2022-12-01T11:11:15.323Z,75.5
2022-12-01T11:12:15.331Z,75.7
2022-12-01T11:13:15.329Z,75.8
2022-12-01T11:14:15.345Z,76.3
2022-12-01T11:15:15.345Z,76.7
2022-12-01T11:16:15.473Z,76.9
2022-12-01T11:17:15.362Z,77.3
2022-12-01T11:18:15.371Z,77.5
2022-12-01T11:19:15.485Z,77.7
2022-12-01T11:20:15.772Z,77.8
2022-12-01T11:21:15.388Z,77.8
2022-12-01T11:22:15.398Z,77.7
2022-12-01T11:23:15.419Z,77.5
2022-12-01T11:24:15.412Z,77.4
2022-12-01T11:25:15.421Z,77.3
2022-12-01T11:26:15.419Z,77.2
2022-12-01T11:27:15.427Z,77.1
2022-12-01T11:28:15.441Z,77.0
2022-12-01T11:29:15.448Z,76.7
2022-12-01T11:30:15.484Z,76.9
2022-12-01T11:31:15.642Z,77.2
2022-12-01T11:32:15.650Z,77.1
2022-12-01T11:33:15.468Z,77.2
2022-12-01T11:34:15.489Z,77.3
2022-12-01T11:35:15.494Z,77.2
2022-12-01T11:36:16.536Z,76.6
2022-12-01T11:37:15.498Z,76.8
2022-12-01T11:38:30.595Z,76.9
2022-12-01T11:39:15.501Z,77.0
2022-12-01T11:40:15.520Z,77.2
2022-12-01T11:41:15.515Z,77.1
2022-12-01T11:42:15.518Z,77.2
2022-12-01T11:43:15.524Z,77.1
2022-12-01T11:44:50.697Z,77.0
2022-12-01T11:45:15.540Z,77.2
2022-12-01T11:46:15.815Z,77.3
2022-12-01T11:47:25.379Z,77.0
2022-12-01T11:48:15.564Z,76.8
2022-12-01T11:49:15.568Z,76.7
2022-12-01T11:50:15.579Z,76.8
2022-12-01T11:51:15.582Z,77.2
2022-12-01T11:52:15.596Z,77.4
2022-12-01T11:53:15.602Z,77.6
2022-12-01T11:54:15.621Z,77.2
2022-12-01T11:55:15.622Z,77.2
2022-12-01T11:56:15.640Z,76.9
2022-12-01T11:57:35.242Z,77.0
2022-12-01T11:58:15.799Z,77.3
2022-12-01T11:59:15.652Z,77.4
2022-12-01T12:00:15.847Z,77.1
2022-12-01T12:01:22.421Z,77.0
2022-12-01T12:02:15.893Z,77.1
2022-12-01T12:03:15.857Z,77.3
2022-12-01T12:04:15.687Z,77.3
2022-12-01T12:05:15.702Z,77.2
2022-12-01T12:06:40.155Z,77.5
2022-12-01T12:07:15.704Z,77.6
2022-12-01T12:08:15.722Z,77.7
2022-12-01T12:09:15.946Z,78.2
2022-12-01T12:10:15.737Z,78.7
2022-12-01T12:11:15.744Z,78.8
2022-12-01T12:12:15.751Z,78.9
2022-12-01T12:13:15.767Z,78.8
2022-12-01T12:14:16.148Z,78.8
2022-12-01T12:15:15.765Z,78.5
2022-12-01T12:16:15.778Z,78.6
2022-12-01T12:17:15.964Z,78.6
2022-12-01T12:18:15.909Z,78.7
2022-12-01T12:19:15.811Z,78.7
2022-12-01T12:20:17.696Z,78.6
2022-12-01T12:21:15.834Z,78.5
2022-12-01T12:22:15.815Z,78.4
2022-12-01T12:23:15.842Z,78.6
2022-12-01T12:24:15.836Z,78.6
2022-12-01T12:25:15.848Z,78.4
2022-12-01T12:26:15.851Z,78.3
2022-12-01T12:27:15.868Z,78.3
2022-12-01T12:28:15.869Z,78.3
2022-12-01T12:29:15.883Z,78.3
2022-12-01T12:30:15.885Z,78.2
2022-12-01T12:31:16.112Z,78.2
2022-12-01T12:32:15.906Z,78.3
2022-12-01T12:33:15.992Z,78.2
2022-12-01T12:34:15.920Z,78.2
2022-12-01T12:35:15.923Z,78.4
2022-12-01T12:36:15.925Z,78.6
2022-12-01T12:37:15.947Z,78.6
2022-12-01T12:38:15.951Z,79.0
2022-12-01T12:39:17.342Z,79.3
2022-12-01T12:40:15.986Z,79.4
2022-12-01T12:41:15.968Z,79.3
2022-12-01T12:42:15.973Z,78.9
2022-12-01T12:43:15.995Z,78.9
2022-12-01T12:44:15.996Z,79.7
2022-12-01T12:45:15.999Z,80.2
2022-12-01T12:46:16.268Z,80.9
2022-12-01T12:47:16.003Z,81.7
2022-12-01T12:48:16.021Z,81.5
2022-12-01T12:49:21.368Z,81.6
2022-12-01T12:50:16.376Z,81.5
2022-12-01T12:51:16.033Z,81.4
2022-12-01T12:52:16.036Z,81.1
2022-12-01T12:53:16.057Z,80.8
2022-12-01T12:54:16.340Z,80.3
2022-12-01T12:55:16.073Z,80.2
2022-12-01T12:56:16.071Z,80.1
2022-12-01T12:57:16.068Z,80.1
2022-12-01T12:58:16.127Z,79.9
2022-12-01T12:59:16.082Z,80.0
2022-12-01T13:00:16.370Z,80.2
2022-12-01T13:01:16.293Z,79.8
2022-12-01T13:02:16.389Z,80.1
2022-12-01T13:03:16.112Z,80.2
2022-12-01T13:04:16.110Z,80.3
2022-12-01T13:05:16.129Z,80.4
2022-12-01T13:06:16.124Z,80.6
2022-12-01T13:07:16.135Z,80.6
2022-12-01T13:08:16.140Z,80.3
2022-12-01T13:09:16.146Z,80.3
2022-12-01T13:10:16.311Z,80.3
2022-12-01T13:11:16.167Z,80.2
2022-12-01T13:12:16.176Z,80.0
2022-12-01T13:13:16.172Z,80.0
2022-12-01T13:14:16.186Z,80.2
2022-12-01T13:15:16.194Z,80.1
2022-12-01T13:16:16.305Z,80.2
2022-12-01T13:17:16.204Z,80.6
2022-12-01T13:18:16.256Z,81.1
2022-12-01T13:19:16.207Z,81.4
2022-12-01T13:20:16.222Z,81.2
2022-12-01T13:21:16.367Z,81.5
2022-12-01T13:22:16.420Z,81.4
2022-12-01T13:23:16.242Z,80.8
2022-12-01T13:24:23.708Z,80.8
2022-12-01T13:25:16.249Z,81.0
2022-12-01T13:26:16.264Z,81.1
2022-12-01T13:27:16.264Z,81.1
2022-12-01T13:28:16.277Z,81.3
2022-12-01T13:29:16.289Z,81.5
2022-12-01T13:30:16.278Z,81.2
2022-12-01T13:31:16.559Z,81.0
2022-12-01T13:32:16.292Z,80.8
2022-12-01T13:33:16.292Z,80.8
2022-12-01T13:34:16.304Z,80.7
2022-12-01T13:35:16.319Z,80.5
2022-12-01T13:36:46.464Z,80.1